sensor_id;sensor_type;location;lat;lon;timestamp;pressure;altitude;pressure_sealevel;temperature
58929;BMP180;44713;53.378;10.022;2023-01-15T00:02:19;99131.00;;;7.10
58929;BMP180;44713;53.378;10.022;2023-01-15T00:04:45;99137.00;;;7.10
58929;BMP180;44713;53.378;10.022;2023-01-15T00:07:10;99126.00;;;7.10
58929;BMP180;44713;53.378;10.022;2023-01-15T00:09:35;99128.00;;;7.10
58929;BMP180;44713;53.378;10.022;2023-01-15T00:12:01;99130.00;;;7.10
58929;BMP180;44713;53.378;10.022;2023-01-15T00:14:26;99126.00;;;7.00
58929;BMP180;44713;53.378;10.022;2023-01-15T00:16:52;99133.00;;;7.10
58929;BMP180;44713;53.378;10.022;2023-01-15T00:19:18;99127.00;;;7.00
58929;BMP180;44713;53.378;10.022;2023-01-15T00:21:43;99138.00;;;7.00
58929;BMP180;44713;53.378;10.022;2023-01-15T00:24:08;99136.00;;;7.00
58929;BMP180;44713;53.378;10.022;2023-01-15T00:26:52;99139.00;;;7.00
58929;BMP180;44713;53.378;10.022;2023-01-15T00:29:36;99133.00;;;7.00
58929;BMP180;44713;53.378;10.022;2023-01-15T00:32:05;99136.00;;;7.00
58929;BMP180;44713;53.378;10.022;2023-01-15T00:34:31;99150.00;;;7.00
58929;BMP180;44713;53.378;10.022;2023-01-15T00:36:59;99140.00;;;7.00
58929;BMP180;44713;53.378;10.022;2023-01-15T00:39:25;99151.00;;;6.90
58929;BMP180;44713;53.378;10.022;2023-01-15T00:41:51;99152.00;;;6.90
58929;BMP180;44713;53.378;10.022;2023-01-15T00:44:16;99147.00;;;6.90
58929;BMP180;44713;53.378;10.022;2023-01-15T00:46:42;99147.00;;;6.80
58929;BMP180;44713;53.378;10.022;2023-01-15T00:49:08;99150.00;;;6.80
58929;BMP180;44713;53.378;10.022;2023-01-15T00:51:34;99150.00;;;6.80
58929;BMP180;44713;53.378;10.022;2023-01-15T00:54:00;99147.00;;;6.80
58929;BMP180;44713;53.378;10.022;2023-01-15T00:56:26;99156.00;;;6.80
58929;BMP180;44713;53.378;10.022;2023-01-15T00:58:51;99149.00;;;6.90
58929;BMP180;44713;53.378;10.022;2023-01-15T01:01:17;99150.00;;;6.90
58929;BMP180;44713;53.378;10.022;2023-01-15T01:03:42;99152.00;;;6.80
58929;BMP180;44713;53.378;10.022;2023-01-15T01:06:12;99149.00;;;6.80
58929;BMP180;44713;53.378;10.022;2023-01-15T01:08:38;99147.00;;;6.80
58929;BMP180;44713;53.378;10.022;2023-01-15T01:11:05;99156.00;;;6.70
58929;BMP180;44713;53.378;10.022;2023-01-15T01:13:31;99155.00;;;6.70
58929;BMP180;44713;53.378;10.022;2023-01-15T01:15:57;99170.00;;;6.80
58929;BMP180;44713;53.378;10.022;2023-01-15T01:18:23;99169.00;;;6.80
58929;BMP180;44713;53.378;10.022;2023-01-15T01:20:49;99152.00;;;6.70
58929;BMP180;44713;53.378;10.022;2023-01-15T01:23:14;99163.00;;;6.70
58929;BMP180;44713;53.378;10.022;2023-01-15T01:25:40;99176.00;;;6.80
58929;BMP180;44713;53.378;10.022;2023-01-15T01:28:05;99166.00;;;6.70
58929;BMP180;44713;53.378;10.022;2023-01-15T01:30:30;99173.00;;;6.70
58929;BMP180;44713;53.378;10.022;2023-01-15T01:32:56;99170.00;;;6.70
58929;BMP180;44713;53.378;10.022;2023-01-15T01:35:22;99166.00;;;6.70
58929;BMP180;44713;53.378;10.022;2023-01-15T01:37:50;99167.00;;;6.70
58929;BMP180;44713;53.378;10.022;2023-01-15T01:40:17;99179.00;;;6.80
58929;BMP180;44713;53.378;10.022;2023-01-15T01:42:42;99164.00;;;6.80
58929;BMP180;44713;53.378;10.022;2023-01-15T01:45:32;99170.00;;;6.80
58929;BMP180;44713;53.378;10.022;2023-01-15T01:48:05;99167.00;;;6.80
58929;BMP180;44713;53.378;10.022;2023-01-15T01:50:32;99177.00;;;6.80
58929;BMP180;44713;53.378;10.022;2023-01-15T01:53:02;99184.00;;;6.80
58929;BMP180;44713;53.378;10.022;2023-01-15T01:55:29;99168.00;;;6.80
58929;BMP180;44713;53.378;10.022;2023-01-15T01:57:58;99178.00;;;6.80
58929;BMP180;44713;53.378;10.022;2023-01-15T02:00:25;99170.00;;;6.90
58929;BMP180;44713;53.378;10.022;2023-01-15T02:02:51;99169.00;;;6.80
58929;BMP180;44713;53.378;10.022;2023-01-15T02:05:27;99170.00;;;6.80
58929;BMP180;44713;53.378;10.022;2023-01-15T02:07:53;99166.00;;;6.90
58929;BMP180;44713;53.378;10.022;2023-01-15T02:10:19;99165.00;;;6.90
58929;BMP180;44713;53.378;10.022;2023-01-15T02:12:59;99154.00;;;6.80
58929;BMP180;44713;53.378;10.022;2023-01-15T02:15:35;99148.00;;;6.80
58929;BMP180;44713;53.378;10.022;2023-01-15T02:24:04;99151.00;;;6.80
58929;BMP180;44713;53.378;10.022;2023-01-15T02:26:56;99163.00;;;6.80
58929;BMP180;44713;53.378;10.022;2023-01-15T02:29:32;99160.00;;;6.80
58929;BMP180;44713;53.378;10.022;2023-01-15T02:32:01;99160.00;;;6.80
58929;BMP180;44713;53.378;10.022;2023-01-15T02:34:31;99155.00;;;6.80
58929;BMP180;44713;53.378;10.022;2023-01-15T02:37:07;99155.00;;;6.80
58929;BMP180;44713;53.378;10.022;2023-01-15T02:39:36;99157.00;;;6.80
58929;BMP180;44713;53.378;10.022;2023-01-15T02:42:04;99159.00;;;6.80
58929;BMP180;44713;53.378;10.022;2023-01-15T02:44:44;99156.00;;;6.80
58929;BMP180;44713;53.378;10.022;2023-01-15T02:47:15;99155.00;;;6.80
58929;BMP180;44713;53.378;10.022;2023-01-15T02:49:42;99148.00;;;6.70
58929;BMP180;44713;53.378;10.022;2023-01-15T02:52:36;99150.00;;;6.70
58929;BMP180;44713;53.378;10.022;2023-01-15T02:55:21;99150.00;;;6.70
58929;BMP180;44713;53.378;10.022;2023-01-15T02:57:50;99151.00;;;6.70
58929;BMP180;44713;53.378;10.022;2023-01-15T03:00:19;99155.00;;;6.70
58929;BMP180;44713;53.378;10.022;2023-01-15T03:02:58;99157.00;;;6.70
58929;BMP180;44713;53.378;10.022;2023-01-15T03:05:30;99149.00;;;6.70
58929;BMP180;44713;53.378;10.022;2023-01-15T03:07:59;99158.00;;;6.70
58929;BMP180;44713;53.378;10.022;2023-01-15T03:10:48;99154.00;;;6.70
58929;BMP180;44713;53.378;10.022;2023-01-15T03:21:49;99162.00;;;6.70
58929;BMP180;44713;53.378;10.022;2023-01-15T03:24:37;99168.00;;;6.70
58929;BMP180;44713;53.378;10.022;2023-01-15T03:27:04;99165.00;;;6.70
58929;BMP180;44713;53.378;10.022;2023-01-15T03:29:32;99159.00;;;6.60
58929;BMP180;44713;53.378;10.022;2023-01-15T03:31:59;99153.00;;;6.70
58929;BMP180;44713;53.378;10.022;2023-01-15T03:34:30;99159.00;;;6.70
58929;BMP180;44713;53.378;10.022;2023-01-15T03:36:58;99160.00;;;6.70
58929;BMP180;44713;53.378;10.022;2023-01-15T03:39:25;99170.00;;;6.70
58929;BMP180;44713;53.378;10.022;2023-01-15T03:49:55;99150.00;;;6.70
58929;BMP180;44713;53.378;10.022;2023-01-15T03:52:33;99147.00;;;6.70
58929;BMP180;44713;53.378;10.022;2023-01-15T03:55:10;99145.00;;;6.70
58929;BMP180;44713;53.378;10.022;2023-01-15T03:57:48;99146.00;;;6.70
58929;BMP180;44713;53.378;10.022;2023-01-15T04:00:24;99144.00;;;6.60
58929;BMP180;44713;53.378;10.022;2023-01-15T04:02:56;99148.00;;;6.60
58929;BMP180;44713;53.378;10.022;2023-01-15T04:05:25;99132.00;;;6.60
58929;BMP180;44713;53.378;10.022;2023-01-15T04:07:53;99140.00;;;6.60
58929;BMP180;44713;53.378;10.022;2023-01-15T04:10:20;99126.00;;;6.60
58929;BMP180;44713;53.378;10.022;2023-01-15T04:12:47;99129.00;;;6.60
58929;BMP180;44713;53.378;10.022;2023-01-15T04:15:14;99136.00;;;6.60
58929;BMP180;44713;53.378;10.022;2023-01-15T04:17:41;99133.00;;;6.60
58929;BMP180;44713;53.378;10.022;2023-01-15T04:20:08;99132.00;;;6.60
58929;BMP180;44713;53.378;10.022;2023-01-15T04:22:37;99134.00;;;6.60
58929;BMP180;44713;53.378;10.022;2023-01-15T04:25:04;99129.00;;;6.60
58929;BMP180;44713;53.378;10.022;2023-01-15T04:27:30;99130.00;;;6.60
58929;BMP180;44713;53.378;10.022;2023-01-15T04:29:56;99118.00;;;6.50
58929;BMP180;44713;53.378;10.022;2023-01-15T04:32:21;99128.00;;;6.50
58929;BMP180;44713;53.378;10.022;2023-01-15T04:34:47;99122.00;;;6.50
58929;BMP180;44713;53.378;10.022;2023-01-15T04:37:14;99122.00;;;6.50
58929;BMP180;44713;53.378;10.022;2023-01-15T04:39:40;99129.00;;;6.50
58929;BMP180;44713;53.378;10.022;2023-01-15T04:42:05;99121.00;;;6.50
58929;BMP180;44713;53.378;10.022;2023-01-15T04:44:49;99121.00;;;6.50
58929;BMP180;44713;53.378;10.022;2023-01-15T04:47:15;99125.00;;;6.50
58929;BMP180;44713;53.378;10.022;2023-01-15T04:49:40;99127.00;;;6.50
58929;BMP180;44713;53.378;10.022;2023-01-15T04:52:06;99115.00;;;6.50
58929;BMP180;44713;53.378;10.022;2023-01-15T04:54:31;99116.00;;;6.50
58929;BMP180;44713;53.378;10.022;2023-01-15T04:56:57;99131.00;;;6.50
58929;BMP180;44713;53.378;10.022;2023-01-15T04:59:24;99125.00;;;6.50
58929;BMP180;44713;53.378;10.022;2023-01-15T05:01:50;99114.00;;;6.50
58929;BMP180;44713;53.378;10.022;2023-01-15T05:04:16;99111.00;;;6.50
58929;BMP180;44713;53.378;10.022;2023-01-15T05:06:41;99115.00;;;6.60
58929;BMP180;44713;53.378;10.022;2023-01-15T05:09:07;99118.00;;;6.50
58929;BMP180;44713;53.378;10.022;2023-01-15T05:11:37;99119.00;;;6.50
58929;BMP180;44713;53.378;10.022;2023-01-15T05:14:03;99119.00;;;6.50
58929;BMP180;44713;53.378;10.022;2023-01-15T05:16:30;99115.00;;;6.50
58929;BMP180;44713;53.378;10.022;2023-01-15T05:19:00;99113.00;;;6.50
58929;BMP180;44713;53.378;10.022;2023-01-15T05:21:31;99108.00;;;6.50
58929;BMP180;44713;53.378;10.022;2023-01-15T05:23:59;99110.00;;;6.40
58929;BMP180;44713;53.378;10.022;2023-01-15T05:26:25;99116.00;;;6.30
58929;BMP180;44713;53.378;10.022;2023-01-15T05:28:55;99115.00;;;6.30
58929;BMP180;44713;53.378;10.022;2023-01-15T05:31:22;99124.00;;;6.30
58929;BMP180;44713;53.378;10.022;2023-01-15T05:33:48;99112.00;;;6.30
58929;BMP180;44713;53.378;10.022;2023-01-15T05:36:16;99118.00;;;6.30
58929;BMP180;44713;53.378;10.022;2023-01-15T05:38:42;99108.00;;;6.30
58929;BMP180;44713;53.378;10.022;2023-01-15T05:41:10;99111.00;;;6.30
58929;BMP180;44713;53.378;10.022;2023-01-15T05:43:56;99107.00;;;6.30
58929;BMP180;44713;53.378;10.022;2023-01-15T05:46:23;99120.00;;;6.30
58929;BMP180;44713;53.378;10.022;2023-01-15T05:48:48;99106.00;;;6.30
58929;BMP180;44713;53.378;10.022;2023-01-15T05:51:14;99115.00;;;6.20
58929;BMP180;44713;53.378;10.022;2023-01-15T05:53:39;99116.00;;;6.20
58929;BMP180;44713;53.378;10.022;2023-01-15T05:56:06;99112.00;;;6.20
58929;BMP180;44713;53.378;10.022;2023-01-15T05:58:31;99110.00;;;6.20
58929;BMP180;44713;53.378;10.022;2023-01-15T06:00:57;99103.00;;;6.20
58929;BMP180;44713;53.378;10.022;2023-01-15T06:03:24;99105.00;;;6.20
58929;BMP180;44713;53.378;10.022;2023-01-15T06:05:53;99110.00;;;6.10
58929;BMP180;44713;53.378;10.022;2023-01-15T06:08:20;99116.00;;;6.10
58929;BMP180;44713;53.378;10.022;2023-01-15T06:10:46;99114.00;;;6.20
58929;BMP180;44713;53.378;10.022;2023-01-15T06:13:13;99113.00;;;6.10
58929;BMP180;44713;53.378;10.022;2023-01-15T06:15:40;99126.00;;;6.20
58929;BMP180;44713;53.378;10.022;2023-01-15T06:18:06;99127.00;;;6.20
58929;BMP180;44713;53.378;10.022;2023-01-15T06:20:34;99126.00;;;6.20
58929;BMP180;44713;53.378;10.022;2023-01-15T06:22:59;99130.00;;;6.10
58929;BMP180;44713;53.378;10.022;2023-01-15T06:25:25;99136.00;;;6.10
58929;BMP180;44713;53.378;10.022;2023-01-15T06:27:50;99136.00;;;6.10
58929;BMP180;44713;53.378;10.022;2023-01-15T06:30:16;99129.00;;;6.10
58929;BMP180;44713;53.378;10.022;2023-01-15T06:32:41;99132.00;;;6.10
58929;BMP180;44713;53.378;10.022;2023-01-15T06:35:07;99127.00;;;6.00
58929;BMP180;44713;53.378;10.022;2023-01-15T06:37:32;99136.00;;;6.00
58929;BMP180;44713;53.378;10.022;2023-01-15T06:39:58;99108.00;;;6.10
58929;BMP180;44713;53.378;10.022;2023-01-15T06:42:23;99130.00;;;6.10
58929;BMP180;44713;53.378;10.022;2023-01-15T06:45:09;99125.00;;;6.10
58929;BMP180;44713;53.378;10.022;2023-01-15T06:47:53;99120.00;;;6.10
58929;BMP180;44713;53.378;10.022;2023-01-15T06:50:19;99119.00;;;6.10
58929;BMP180;44713;53.378;10.022;2023-01-15T06:52:44;99128.00;;;6.10
58929;BMP180;44713;53.378;10.022;2023-01-15T06:55:10;99115.00;;;6.00
58929;BMP180;44713;53.378;10.022;2023-01-15T06:57:39;99112.00;;;6.00
58929;BMP180;44713;53.378;10.022;2023-01-15T07:00:06;99113.00;;;6.00
58929;BMP180;44713;53.378;10.022;2023-01-15T07:02:32;99117.00;;;6.00
58929;BMP180;44713;53.378;10.022;2023-01-15T07:04:58;99112.00;;;6.00
58929;BMP180;44713;53.378;10.022;2023-01-15T07:07:23;99128.00;;;6.00
58929;BMP180;44713;53.378;10.022;2023-01-15T07:09:49;99119.00;;;6.00
58929;BMP180;44713;53.378;10.022;2023-01-15T07:12:15;99128.00;;;6.00
58929;BMP180;44713;53.378;10.022;2023-01-15T07:14:40;99122.00;;;6.00
58929;BMP180;44713;53.378;10.022;2023-01-15T07:17:05;99122.00;;;6.00
58929;BMP180;44713;53.378;10.022;2023-01-15T07:19:31;99114.00;;;6.00
58929;BMP180;44713;53.378;10.022;2023-01-15T07:21:56;99115.00;;;5.90
58929;BMP180;44713;53.378;10.022;2023-01-15T07:24:22;99114.00;;;6.00
58929;BMP180;44713;53.378;10.022;2023-01-15T07:26:47;99122.00;;;6.00
58929;BMP180;44713;53.378;10.022;2023-01-15T07:29:12;99120.00;;;6.00
58929;BMP180;44713;53.378;10.022;2023-01-15T07:31:38;99119.00;;;6.00
58929;BMP180;44713;53.378;10.022;2023-01-15T07:34:04;99124.00;;;5.90
58929;BMP180;44713;53.378;10.022;2023-01-15T07:36:30;99105.00;;;5.90
58929;BMP180;44713;53.378;10.022;2023-01-15T07:38:55;99123.00;;;6.00
58929;BMP180;44713;53.378;10.022;2023-01-15T07:41:21;99112.00;;;6.00
58929;BMP180;44713;53.378;10.022;2023-01-15T07:44:05;99116.00;;;6.10
58929;BMP180;44713;53.378;10.022;2023-01-15T07:46:49;99124.00;;;6.10
58929;BMP180;44713;53.378;10.022;2023-01-15T07:49:33;99135.00;;;6.10
58929;BMP180;44713;53.378;10.022;2023-01-15T07:52:15;99125.00;;;6.10
58929;BMP180;44713;53.378;10.022;2023-01-15T07:54:41;99129.00;;;6.20
58929;BMP180;44713;53.378;10.022;2023-01-15T07:57:07;99139.00;;;6.20
58929;BMP180;44713;53.378;10.022;2023-01-15T07:59:32;99120.00;;;6.20
58929;BMP180;44713;53.378;10.022;2023-01-15T08:01:58;99120.00;;;6.20
58929;BMP180;44713;53.378;10.022;2023-01-15T08:04:23;99126.00;;;6.10
58929;BMP180;44713;53.378;10.022;2023-01-15T08:06:49;99126.00;;;6.20
58929;BMP180;44713;53.378;10.022;2023-01-15T08:09:14;99126.00;;;6.20
58929;BMP180;44713;53.378;10.022;2023-01-15T08:11:39;99122.00;;;6.20
58929;BMP180;44713;53.378;10.022;2023-01-15T08:14:23;99125.00;;;6.10
58929;BMP180;44713;53.378;10.022;2023-01-15T08:17:07;99119.00;;;6.10
58929;BMP180;44713;53.378;10.022;2023-01-15T08:19:34;99128.00;;;6.10
58929;BMP180;44713;53.378;10.022;2023-01-15T08:21:59;99140.00;;;6.20
58929;BMP180;44713;53.378;10.022;2023-01-15T08:24:26;99134.00;;;6.10
58929;BMP180;44713;53.378;10.022;2023-01-15T08:26:52;99131.00;;;6.10
58929;BMP180;44713;53.378;10.022;2023-01-15T08:29:17;99136.00;;;6.20
58929;BMP180;44713;53.378;10.022;2023-01-15T08:31:43;99136.00;;;6.20
58929;BMP180;44713;53.378;10.022;2023-01-15T08:34:09;99143.00;;;6.20
58929;BMP180;44713;53.378;10.022;2023-01-15T08:36:34;99134.00;;;6.20
58929;BMP180;44713;53.378;10.022;2023-01-15T08:39:00;99148.00;;;6.20
58929;BMP180;44713;53.378;10.022;2023-01-15T08:41:25;99145.00;;;6.20
58929;BMP180;44713;53.378;10.022;2023-01-15T08:43:51;99147.00;;;6.20
58929;BMP180;44713;53.378;10.022;2023-01-15T08:46:16;99138.00;;;6.20
58929;BMP180;44713;53.378;10.022;2023-01-15T08:48:42;99119.00;;;6.20
58929;BMP180;44713;53.378;10.022;2023-01-15T08:51:09;99117.00;;;6.10
58929;BMP180;44713;53.378;10.022;2023-01-15T08:53:37;99125.00;;;6.20
58929;BMP180;44713;53.378;10.022;2023-01-15T08:56:02;99113.00;;;6.10
58929;BMP180;44713;53.378;10.022;2023-01-15T08:58:29;99110.00;;;6.10
58929;BMP180;44713;53.378;10.022;2023-01-15T09:00:55;99111.00;;;6.10
58929;BMP180;44713;53.378;10.022;2023-01-15T09:03:21;99106.00;;;6.10
58929;BMP180;44713;53.378;10.022;2023-01-15T09:05:46;99111.00;;;6.10
58929;BMP180;44713;53.378;10.022;2023-01-15T09:08:12;99115.00;;;6.10
58929;BMP180;44713;53.378;10.022;2023-01-15T09:10:37;99107.00;;;6.20
58929;BMP180;44713;53.378;10.022;2023-01-15T09:13:03;99113.00;;;6.20
58929;BMP180;44713;53.378;10.022;2023-01-15T09:15:30;99102.00;;;6.20
58929;BMP180;44713;53.378;10.022;2023-01-15T09:17:56;99111.00;;;6.20
58929;BMP180;44713;53.378;10.022;2023-01-15T09:20:22;99110.00;;;6.20
58929;BMP180;44713;53.378;10.022;2023-01-15T09:22:48;99101.00;;;6.20
58929;BMP180;44713;53.378;10.022;2023-01-15T09:25:14;99109.00;;;6.10
58929;BMP180;44713;53.378;10.022;2023-01-15T09:27:45;99108.00;;;6.00
58929;BMP180;44713;53.378;10.022;2023-01-15T09:30:16;99108.00;;;6.00
58929;BMP180;44713;53.378;10.022;2023-01-15T09:32:42;99123.00;;;6.00
58929;BMP180;44713;53.378;10.022;2023-01-15T09:35:07;99125.00;;;5.90
58929;BMP180;44713;53.378;10.022;2023-01-15T09:37:33;99117.00;;;6.00
58929;BMP180;44713;53.378;10.022;2023-01-15T09:39:58;99109.00;;;6.00
58929;BMP180;44713;53.378;10.022;2023-01-15T09:42:35;99123.00;;;6.10
58929;BMP180;44713;53.378;10.022;2023-01-15T09:48:04;99119.00;;;6.00
58929;BMP180;44713;53.378;10.022;2023-01-15T09:55:37;99114.00;;;6.00
58929;BMP180;44713;53.378;10.022;2023-01-15T09:58:05;99118.00;;;6.00
58929;BMP180;44713;53.378;10.022;2023-01-15T10:00:42;99116.00;;;6.00
58929;BMP180;44713;53.378;10.022;2023-01-15T10:03:32;99121.00;;;6.00
58929;BMP180;44713;53.378;10.022;2023-01-15T10:06:18;99131.00;;;6.10
58929;BMP180;44713;53.378;10.022;2023-01-15T10:08:47;99124.00;;;6.20
58929;BMP180;44713;53.378;10.022;2023-01-15T10:13:43;99137.00;;;6.30
58929;BMP180;44713;53.378;10.022;2023-01-15T10:16:13;99115.00;;;6.40
58929;BMP180;44713;53.378;10.022;2023-01-15T10:18:43;99140.00;;;6.50
58929;BMP180;44713;53.378;10.022;2023-01-15T10:21:38;99127.00;;;6.60
58929;BMP180;44713;53.378;10.022;2023-01-15T10:24:24;99147.00;;;6.60
58929;BMP180;44713;53.378;10.022;2023-01-15T10:26:57;99138.00;;;6.60
58929;BMP180;44713;53.378;10.022;2023-01-15T10:29:43;99125.00;;;6.60
58929;BMP180;44713;53.378;10.022;2023-01-15T10:37:15;99134.00;;;6.80
58929;BMP180;44713;53.378;10.022;2023-01-15T10:40:02;99110.00;;;6.80
58929;BMP180;44713;53.378;10.022;2023-01-15T10:42:45;99114.00;;;6.90
58929;BMP180;44713;53.378;10.022;2023-01-15T10:45:18;99114.00;;;7.00
58929;BMP180;44713;53.378;10.022;2023-01-15T10:47:49;99119.00;;;7.00
58929;BMP180;44713;53.378;10.022;2023-01-15T10:50:22;99117.00;;;7.00
58929;BMP180;44713;53.378;10.022;2023-01-15T10:53:14;99103.00;;;7.00
58929;BMP180;44713;53.378;10.022;2023-01-15T10:55:49;99104.00;;;7.10
58929;BMP180;44713;53.378;10.022;2023-01-15T10:58:37;99099.00;;;7.10
58929;BMP180;44713;53.378;10.022;2023-01-15T11:01:08;99084.00;;;7.20
58929;BMP180;44713;53.378;10.022;2023-01-15T11:03:37;99109.00;;;7.40
58929;BMP180;44713;53.378;10.022;2023-01-15T11:06:04;99085.00;;;7.30
58929;BMP180;44713;53.378;10.022;2023-01-15T11:08:33;99081.00;;;7.40
58929;BMP180;44713;53.378;10.022;2023-01-15T11:11:13;99073.00;;;7.40
58929;BMP180;44713;53.378;10.022;2023-01-15T11:13:51;99057.00;;;7.50
58929;BMP180;44713;53.378;10.022;2023-01-15T11:16:36;99078.00;;;7.60
58929;BMP180;44713;53.378;10.022;2023-01-15T11:19:30;99068.00;;;7.40
58929;BMP180;44713;53.378;10.022;2023-01-15T11:22:16;99064.00;;;7.30
58929;BMP180;44713;53.378;10.022;2023-01-15T11:24:50;99054.00;;;7.20
58929;BMP180;44713;53.378;10.022;2023-01-15T11:27:19;99064.00;;;7.30
58929;BMP180;44713;53.378;10.022;2023-01-15T11:29:49;99071.00;;;7.40
58929;BMP180;44713;53.378;10.022;2023-01-15T11:32:29;99057.00;;;7.40
58929;BMP180;44713;53.378;10.022;2023-01-15T11:35:00;99054.00;;;7.30
58929;BMP180;44713;53.378;10.022;2023-01-15T11:37:26;99058.00;;;7.30
58929;BMP180;44713;53.378;10.022;2023-01-15T11:39:56;99037.00;;;7.30
58929;BMP180;44713;53.378;10.022;2023-01-15T11:42:22;99038.00;;;7.20
58929;BMP180;44713;53.378;10.022;2023-01-15T11:45:18;99057.00;;;7.20
58929;BMP180;44713;53.378;10.022;2023-01-15T11:48:13;99060.00;;;7.10
58929;BMP180;44713;53.378;10.022;2023-01-15T11:51:12;99056.00;;;7.00
58929;BMP180;44713;53.378;10.022;2023-01-15T11:54:01;99061.00;;;6.80
58929;BMP180;44713;53.378;10.022;2023-01-15T11:56:28;99087.00;;;6.60
58929;BMP180;44713;53.378;10.022;2023-01-15T11:58:57;99143.00;;;6.50
58929;BMP180;44713;53.378;10.022;2023-01-15T12:06:58;99108.00;;;5.50
58929;BMP180;44713;53.378;10.022;2023-01-15T12:09:57;99103.00;;;5.40
58929;BMP180;44713;53.378;10.022;2023-01-15T12:12:37;99106.00;;;5.10
58929;BMP180;44713;53.378;10.022;2023-01-15T12:20:30;99085.00;;;5.00
58929;BMP180;44713;53.378;10.022;2023-01-15T12:23:43;99084.00;;;5.00
58929;BMP180;44713;53.378;10.022;2023-01-15T12:26:23;99089.00;;;5.10
58929;BMP180;44713;53.378;10.022;2023-01-15T12:29:07;99076.00;;;5.20
58929;BMP180;44713;53.378;10.022;2023-01-15T12:31:42;99070.00;;;5.20
58929;BMP180;44713;53.378;10.022;2023-01-15T12:34:25;99068.00;;;5.20
58929;BMP180;44713;53.378;10.022;2023-01-15T12:37:04;99061.00;;;5.30
58929;BMP180;44713;53.378;10.022;2023-01-15T12:39:35;99066.00;;;5.30
58929;BMP180;44713;53.378;10.022;2023-01-15T12:42:08;99078.00;;;5.30
58929;BMP180;44713;53.378;10.022;2023-01-15T12:44:55;99074.00;;;5.40
58929;BMP180;44713;53.378;10.022;2023-01-15T12:47:35;99063.00;;;5.40
58929;BMP180;44713;53.378;10.022;2023-01-15T12:52:41;99052.00;;;5.50
58929;BMP180;44713;53.378;10.022;2023-01-15T12:55:13;99050.00;;;5.60
58929;BMP180;44713;53.378;10.022;2023-01-15T12:57:43;99050.00;;;5.70
58929;BMP180;44713;53.378;10.022;2023-01-15T13:00:19;99029.00;;;5.70
58929;BMP180;44713;53.378;10.022;2023-01-15T13:05:26;99017.00;;;5.90
58929;BMP180;44713;53.378;10.022;2023-01-15T13:08:18;99015.00;;;5.90
58929;BMP180;44713;53.378;10.022;2023-01-15T13:10:48;98999.00;;;6.00
58929;BMP180;44713;53.378;10.022;2023-01-15T13:16:23;98999.00;;;6.10
58929;BMP180;44713;53.378;10.022;2023-01-15T13:21:30;99002.00;;;6.20
58929;BMP180;44713;53.378;10.022;2023-01-15T13:27:02;98988.00;;;6.40
58929;BMP180;44713;53.378;10.022;2023-01-15T13:32:48;98986.00;;;6.40
58929;BMP180;44713;53.378;10.022;2023-01-15T13:37:51;99028.00;;;6.60
58929;BMP180;44713;53.378;10.022;2023-01-15T13:40:27;99016.00;;;6.50
58929;BMP180;44713;53.378;10.022;2023-01-15T13:42:54;99060.00;;;6.40
58929;BMP180;44713;53.378;10.022;2023-01-15T13:45:42;99047.00;;;6.20
58929;BMP180;44713;53.378;10.022;2023-01-15T13:48:14;99042.00;;;6.00
58929;BMP180;44713;53.378;10.022;2023-01-15T13:50:54;99037.00;;;5.80
58929;BMP180;44713;53.378;10.022;2023-01-15T13:53:29;99031.00;;;5.80
58929;BMP180;44713;53.378;10.022;2023-01-15T13:55:57;99027.00;;;5.80
58929;BMP180;44713;53.378;10.022;2023-01-15T13:58:31;99020.00;;;5.80
58929;BMP180;44713;53.378;10.022;2023-01-15T14:01:20;99020.00;;;5.90
58929;BMP180;44713;53.378;10.022;2023-01-15T14:06:51;99024.00;;;6.00
58929;BMP180;44713;53.378;10.022;2023-01-15T14:17:54;99007.00;;;6.10
58929;BMP180;44713;53.378;10.022;2023-01-15T14:20:51;99004.00;;;6.10
58929;BMP180;44713;53.378;10.022;2023-01-15T14:26:10;99000.00;;;6.20
58929;BMP180;44713;53.378;10.022;2023-01-15T14:28:48;99000.00;;;6.30
58929;BMP180;44713;53.378;10.022;2023-01-15T14:31:44;99004.00;;;6.40
58929;BMP180;44713;53.378;10.022;2023-01-15T14:34:23;98988.00;;;6.40
58929;BMP180;44713;53.378;10.022;2023-01-15T14:36:53;98988.00;;;6.50
58929;BMP180;44713;53.378;10.022;2023-01-15T14:41:57;98992.00;;;6.70
58929;BMP180;44713;53.378;10.022;2023-01-15T14:44:43;98994.00;;;6.70
58929;BMP180;44713;53.378;10.022;2023-01-15T14:47:21;99009.00;;;6.70
58929;BMP180;44713;53.378;10.022;2023-01-15T14:49:58;99001.00;;;6.70
58929;BMP180;44713;53.378;10.022;2023-01-15T14:52:24;98999.00;;;6.80
58929;BMP180;44713;53.378;10.022;2023-01-15T14:54:50;98995.00;;;6.80
58929;BMP180;44713;53.378;10.022;2023-01-15T14:57:17;98997.00;;;6.90
58929;BMP180;44713;53.378;10.022;2023-01-15T14:59:56;99006.00;;;6.90
58929;BMP180;44713;53.378;10.022;2023-01-15T15:02:33;99010.00;;;6.90
58929;BMP180;44713;53.378;10.022;2023-01-15T15:05:00;99003.00;;;6.90
58929;BMP180;44713;53.378;10.022;2023-01-15T15:07:32;99006.00;;;6.90
58929;BMP180;44713;53.378;10.022;2023-01-15T15:20:32;99030.00;;;6.80
58929;BMP180;44713;53.378;10.022;2023-01-15T15:23:09;99020.00;;;7.00
58929;BMP180;44713;53.378;10.022;2023-01-15T15:25:37;99028.00;;;6.90
58929;BMP180;44713;53.378;10.022;2023-01-15T15:28:04;99036.00;;;6.90
58929;BMP180;44713;53.378;10.022;2023-01-15T15:30:32;99056.00;;;6.80
58929;BMP180;44713;53.378;10.022;2023-01-15T15:33:01;99043.00;;;6.90
58929;BMP180;44713;53.378;10.022;2023-01-15T15:35:29;99044.00;;;6.90
58929;BMP180;44713;53.378;10.022;2023-01-15T15:37:56;99037.00;;;6.90
58929;BMP180;44713;53.378;10.022;2023-01-15T15:40:29;99050.00;;;6.90
58929;BMP180;44713;53.378;10.022;2023-01-15T15:45:50;99073.00;;;6.70
58929;BMP180;44713;53.378;10.022;2023-01-15T15:48:34;99079.00;;;6.70
58929;BMP180;44713;53.378;10.022;2023-01-15T15:51:29;99077.00;;;6.60
58929;BMP180;44713;53.378;10.022;2023-01-15T15:54:25;99096.00;;;6.50
58929;BMP180;44713;53.378;10.022;2023-01-15T15:56:59;99097.00;;;6.50
58929;BMP180;44713;53.378;10.022;2023-01-15T15:59:36;99134.00;;;6.40
58929;BMP180;44713;53.378;10.022;2023-01-15T16:02:18;99147.00;;;6.30
58929;BMP180;44713;53.378;10.022;2023-01-15T16:04:52;99140.00;;;6.20
58929;BMP180;44713;53.378;10.022;2023-01-15T16:07:31;99152.00;;;6.10
58929;BMP180;44713;53.378;10.022;2023-01-15T16:10:24;99143.00;;;6.00
58929;BMP180;44713;53.378;10.022;2023-01-15T16:12:52;99140.00;;;6.00